createdAt,value
2018-06-15T00:01:19.927Z,101189.58
2018-06-15T00:03:52.520Z,101185.07
2018-06-15T00:06:23.439Z,101183.11
2018-06-15T00:08:52.800Z,101177.94
2018-06-15T00:11:22.299Z,101185.48
2018-06-15T00:13:51.691Z,101184.58
2018-06-15T00:16:21.145Z,101182.73
2018-06-15T00:18:50.497Z,101184.58
2018-06-15T00:21:19.864Z,101183.15
2018-06-15T00:23:49.316Z,101181.06
2018-06-15T00:26:18.609Z,101186.03
2018-06-15T00:28:47.951Z,101178.77
2018-06-15T00:31:17.360Z,101182.09
2018-06-15T00:33:46.721Z,101186.06
2018-06-15T00:36:16.119Z,101179.87
2018-06-15T00:38:45.574Z,101178.31
2018-06-15T00:41:14.898Z,101180.81
2018-06-15T00:43:44.231Z,101178.72
2018-06-15T00:46:13.344Z,101182.75
2018-06-15T00:48:42.620Z,101170.77
2018-06-15T00:51:11.972Z,101168.34
2018-06-15T00:53:41.324Z,101170.72
2018-06-15T00:56:10.700Z,101171.29
2018-06-15T00:58:42.135Z,101169.27
2018-06-15T01:04:36.142Z,101169.94
2018-06-15T01:07:08.382Z,101169.53
2018-06-15T01:09:41.206Z,101169.94
2018-06-15T01:12:15.868Z,101167.03
2018-06-15T01:14:45.266Z,101163.63
2018-06-15T01:17:14.733Z,101160.47
2018-06-15T01:19:43.924Z,101160.02
2018-06-15T01:22:13.800Z,101160.59
2018-06-15T01:24:43.194Z,101152.92
2018-06-15T01:27:12.495Z,101155.30
2018-06-15T01:29:41.790Z,101154.97
2018-06-15T01:32:11.148Z,101150.83
2018-06-15T01:34:40.978Z,101153.50
2018-06-15T01:37:10.485Z,101145.09
2018-06-15T01:39:39.808Z,101148.98
2018-06-15T01:42:09.153Z,101150.22
2018-06-15T01:44:38.441Z,101146.89
2018-06-15T01:47:07.844Z,101141.69
2018-06-15T01:49:37.217Z,101144.84
2018-06-15T01:52:06.534Z,101144.84
2018-06-15T01:54:35.903Z,101142.55
2018-06-15T01:57:05.219Z,101146.73
2018-06-15T01:59:34.663Z,101138.03
2018-06-15T02:02:04.278Z,101139.97
2018-06-15T02:04:33.631Z,101141.28
2018-06-15T02:07:03.026Z,101138.03
2018-06-15T02:09:32.510Z,101141.11
2018-06-15T02:12:02.005Z,101138.77
2018-06-15T02:14:31.553Z,101141.06
2018-06-15T02:17:01.037Z,101144.06
2018-06-15T02:19:30.505Z,101140.53
2018-06-15T02:22:00.050Z,101136.27
2018-06-15T02:24:29.444Z,101142.14
2018-06-15T02:27:03.160Z,101135.91
2018-06-15T02:29:33.158Z,101135.66
2018-06-15T02:32:11.205Z,101142.55
2018-06-15T02:34:42.834Z,101144.11
2018-06-15T02:37:15.432Z,101142.88
2018-06-15T02:39:51.526Z,101143.53
2018-06-15T02:42:27.574Z,101142.05
2018-06-15T02:44:59.541Z,101148.08
2018-06-15T02:47:29.925Z,101153.25
2018-06-15T02:50:00.458Z,101152.06
2018-06-15T02:52:34.738Z,101153.70
2018-06-15T02:55:09.004Z,101151.32
2018-06-15T02:57:39.856Z,101152.05
2018-06-15T03:00:09.087Z,101156.04
2018-06-15T03:02:41.367Z,101157.35
2018-06-15T03:05:11.957Z,101157.30
2018-06-15T03:07:44.408Z,101150.87
2018-06-15T03:10:19.523Z,101156.36
2018-06-15T03:12:50.099Z,101160.25
2018-06-15T03:15:22.327Z,101159.72
2018-06-15T03:17:53.838Z,101165.92
2018-06-15T03:20:23.537Z,101167.42
2018-06-15T03:22:54.918Z,101163.70
2018-06-15T03:25:24.163Z,101161.61
2018-06-15T03:27:53.517Z,101163.45
2018-06-15T03:30:24.425Z,101166.08
2018-06-15T03:32:56.661Z,101156.69
2018-06-15T03:35:40.134Z,101167.81
2018-06-15T03:38:11.783Z,101164.00
2018-06-15T03:40:41.168Z,101164.20
2018-06-15T03:43:12.525Z,101166.91
2018-06-15T03:45:42.876Z,101170.84
2018-06-15T03:48:12.557Z,101168.95
2018-06-15T03:50:43.216Z,101168.34
2018-06-15T03:53:12.710Z,101167.36
2018-06-15T03:55:42.037Z,101168.06
2018-06-15T03:58:16.313Z,101169.78
2018-06-15T04:00:46.950Z,101180.03
2018-06-15T04:03:18.037Z,101188.69
2018-06-15T04:05:54.050Z,101191.48
2018-06-15T04:08:28.097Z,101188.16
2018-06-15T04:11:00.503Z,101193.49
2018-06-15T04:13:40.054Z,101189.06
2018-06-15T04:16:10.817Z,101188.24
2018-06-15T04:18:48.852Z,101189.09
2018-06-15T04:21:19.471Z,101182.19
2018-06-15T04:23:50.688Z,101182.93
2018-06-15T04:26:26.744Z,101176.34
2018-06-15T04:28:57.424Z,101189.22
2018-06-15T04:31:32.711Z,101194.30
2018-06-15T04:34:10.103Z,101190.03
2018-06-15T04:36:39.655Z,101187.13
2018-06-15T04:39:10.439Z,101195.63
2018-06-15T04:41:40.844Z,101196.70
2018-06-15T04:44:10.254Z,101198.70
2018-06-15T04:46:40.109Z,101204.91
2018-06-15T04:49:10.545Z,101205.28
2018-06-15T04:51:40.078Z,101204.47
2018-06-15T04:54:09.587Z,101206.55
2018-06-15T04:56:40.716Z,101206.09
2018-06-15T04:59:10.427Z,101209.41
2018-06-15T05:01:40.104Z,101208.09
2018-06-15T05:04:09.758Z,101211.72
2018-06-15T05:06:39.208Z,101205.59
2018-06-15T05:09:10.199Z,101210.05
2018-06-15T05:11:39.796Z,101212.19
2018-06-15T05:14:09.106Z,101213.68
2018-06-15T05:16:38.405Z,101211.14
2018-06-15T05:19:07.758Z,101204.11
2018-06-15T05:21:38.513Z,101206.88
2018-06-15T05:24:10.971Z,101205.20
2018-06-15T05:26:41.862Z,101204.05
2018-06-15T05:29:12.067Z,101201.17
2018-06-15T05:31:41.850Z,101194.04
2018-06-15T05:34:12.393Z,101203.52
2018-06-15T05:36:42.544Z,101203.52
2018-06-15T05:39:12.749Z,101207.28
2018-06-15T05:41:42.687Z,101207.73
2018-06-15T05:44:12.035Z,101201.75
2018-06-15T05:46:41.447Z,101206.42
2018-06-15T05:49:10.874Z,101200.98
2018-06-15T05:51:40.214Z,101206.47
2018-06-15T05:54:09.607Z,101207.23
2018-06-15T05:56:38.975Z,101211.98
2018-06-15T05:59:08.285Z,101211.73
2018-06-15T06:01:37.596Z,101214.76
2018-06-15T06:04:07.223Z,101217.03
2018-06-15T06:06:36.670Z,101222.98
2018-06-15T06:09:09.407Z,101218.09
2018-06-15T06:11:38.877Z,101224.78
2018-06-15T06:14:08.287Z,101228.91
2018-06-15T06:16:37.703Z,101233.06
2018-06-15T06:19:07.191Z,101232.38
2018-06-15T06:21:36.727Z,101239.67
2018-06-15T06:24:06.368Z,101237.16
2018-06-15T06:26:40.119Z,101239.88
2018-06-15T06:29:09.467Z,101240.34
2018-06-15T06:31:38.637Z,101243.83
2018-06-15T06:34:09.414Z,101237.51
2018-06-15T06:36:38.986Z,101242.59
2018-06-15T06:39:11.361Z,101245.27
2018-06-15T06:41:41.578Z,101245.95
2018-06-15T06:44:11.411Z,101249.70
2018-06-15T06:46:40.841Z,101243.28
2018-06-15T06:49:10.140Z,101244.99
2018-06-15T06:51:39.455Z,101248.66
2018-06-15T06:54:08.732Z,101248.67
2018-06-15T06:56:38.099Z,101246.20
2018-06-15T06:59:07.484Z,101243.09
2018-06-15T07:01:41.353Z,101235.30
2018-06-15T07:04:10.644Z,101240.63
2018-06-15T07:06:40.094Z,101237.92
2018-06-15T07:09:09.475Z,101237.59
2018-06-15T07:11:40.855Z,101235.27
2018-06-15T07:14:10.182Z,101241.58
2018-06-15T07:16:39.489Z,101241.04
2018-06-15T07:19:09.031Z,101240.91
2018-06-15T07:21:38.467Z,101240.55
2018-06-15T07:24:07.750Z,101238.06
2018-06-15T07:26:37.119Z,101244.73
2018-06-15T07:29:06.442Z,101244.88
2018-06-15T07:31:35.969Z,101243.76
2018-06-15T07:34:05.327Z,101239.59
2018-06-15T07:36:34.724Z,101237.48
2018-06-15T07:39:04.862Z,101230.22
2018-06-15T07:41:34.261Z,101232.20
2018-06-15T07:44:03.706Z,101235.21
2018-06-15T07:46:33.089Z,101239.34
2018-06-15T07:49:02.579Z,101241.25
2018-06-15T07:51:31.820Z,101242.81
2018-06-15T07:54:01.266Z,101250.36
2018-06-15T07:56:30.694Z,101244.14
2018-06-15T07:59:00.267Z,101240.86
2018-06-15T08:01:29.659Z,101242.84
2018-06-15T08:04:03.713Z,101240.59
2018-06-15T08:06:33.581Z,101235.28
2018-06-15T08:09:03.010Z,101246.11
2018-06-15T08:11:32.559Z,101246.48
2018-06-15T08:14:02.162Z,101242.08
2018-06-15T08:16:32.120Z,101244.05
2018-06-15T08:19:01.733Z,101241.13
2018-06-15T08:21:31.222Z,101243.77
2018-06-15T08:24:00.636Z,101242.43
2018-06-15T08:26:30.094Z,101247.22
2018-06-15T08:28:59.431Z,101241.58
2018-06-15T08:31:28.735Z,101243.50
2018-06-15T08:33:58.135Z,101242.20
2018-06-15T08:36:27.438Z,101236.52
2018-06-15T08:38:57.005Z,101231.85
2018-06-15T08:41:26.278Z,101229.61
2018-06-15T08:43:55.591Z,101234.03
2018-06-15T08:46:24.914Z,101230.63
2018-06-15T08:48:54.830Z,101225.48
2018-06-15T08:51:24.151Z,101230.85
2018-06-15T08:53:53.434Z,101228.97
2018-06-15T08:56:22.713Z,101222.05
2018-06-15T08:58:52.197Z,101225.20
2018-06-15T09:01:21.497Z,101225.20
2018-06-15T09:03:50.773Z,101225.52
2018-06-15T09:06:20.173Z,101221.69
2018-06-15T09:08:49.456Z,101220.25
2018-06-15T09:11:18.852Z,101224.28
2018-06-15T09:13:48.115Z,101221.37
2018-06-15T09:16:17.394Z,101222.74
2018-06-15T09:18:46.705Z,101218.95
2018-06-15T09:21:15.824Z,101221.59
2018-06-15T09:23:45.149Z,101212.27
2018-06-15T09:26:14.439Z,101219.81
2018-06-15T09:28:43.725Z,101219.05
2018-06-15T09:31:13.033Z,101220.27
2018-06-15T09:33:42.405Z,101218.01
2018-06-15T09:36:11.777Z,101222.04
2018-06-15T09:38:41.187Z,101220.55
2018-06-15T09:41:10.549Z,101217.13
2018-06-15T09:43:39.839Z,101220.55
2018-06-15T09:46:09.167Z,101214.09
2018-06-15T09:48:42.225Z,101219.34
2018-06-15T09:51:12.600Z,101216.45
2018-06-15T09:53:41.882Z,101222.09
2018-06-15T09:56:11.249Z,101226.21
2018-06-15T09:58:40.519Z,101227.62
2018-06-15T10:01:11.017Z,101226.46
2018-06-15T10:03:40.895Z,101225.92
2018-06-15T10:06:10.274Z,101223.95
2018-06-15T10:08:39.586Z,101224.17
2018-06-15T10:11:08.966Z,101227.13
2018-06-15T10:13:38.061Z,101217.88
2018-06-15T10:16:07.397Z,101226.52
2018-06-15T10:18:37.705Z,101222.59
2018-06-15T10:21:07.207Z,101216.12
2018-06-15T10:23:36.515Z,101216.05
2018-06-15T10:26:09.810Z,101218.09
2018-06-15T10:28:42.979Z,101217.66
2018-06-15T10:31:16.445Z,101224.02
2018-06-15T10:33:49.907Z,101217.58
2018-06-15T10:36:19.395Z,101220.58
2018-06-15T10:38:48.879Z,101223.99
2018-06-15T10:41:18.225Z,101222.59
2018-06-15T10:43:47.493Z,101222.05
2018-06-15T10:46:16.793Z,101214.52
2018-06-15T10:48:46.051Z,101213.44
2018-06-15T10:51:15.417Z,101210.77
2018-06-15T10:53:44.794Z,101206.94
2018-06-15T10:56:14.189Z,101211.83
2018-06-15T10:58:43.414Z,101208.66
2018-06-15T11:01:12.760Z,101205.52
2018-06-15T11:03:42.057Z,101210.97
2018-06-15T11:06:11.300Z,101207.60
2018-06-15T11:08:40.580Z,101205.09
2018-06-15T11:11:10.186Z,101206.47
2018-06-15T11:13:39.514Z,101199.39
2018-06-15T11:16:08.834Z,101192.75
2018-06-15T11:18:38.174Z,101191.03
2018-06-15T11:21:07.591Z,101202.24
2018-06-15T11:23:36.948Z,101196.90
2018-06-15T11:26:06.525Z,101191.42
2018-06-15T11:28:35.914Z,101186.16
2018-06-15T11:31:05.319Z,101180.08
2018-06-15T11:33:34.877Z,101176.09
2018-06-15T11:36:05.018Z,101177.45
2018-06-15T11:38:34.926Z,101181.63
2018-06-15T11:41:05.182Z,101189.22
2018-06-15T11:43:35.158Z,101178.95
2018-06-15T11:46:04.801Z,101175.83
2018-06-15T11:48:36.484Z,101171.65
2018-06-15T11:51:06.013Z,101170.80
2018-06-15T11:53:35.397Z,101162.01
2018-06-15T11:56:04.962Z,101157.14
2018-06-15T11:58:34.598Z,101159.36
2018-06-15T12:01:04.516Z,101159.73
2018-06-15T12:03:34.015Z,101153.02
2018-06-15T12:06:03.501Z,101150.92
2018-06-15T12:08:34.957Z,101146.07
2018-06-15T12:11:04.599Z,101146.55
2018-06-15T12:13:34.348Z,101149.40
2018-06-15T12:16:03.564Z,101144.77
2018-06-15T12:18:33.128Z,101146.83
2018-06-15T12:21:02.915Z,101143.78
2018-06-15T12:23:32.332Z,101139.20
2018-06-15T12:26:01.777Z,101144.89
2018-06-15T12:28:32.578Z,101135.37
2018-06-15T12:31:02.265Z,101138.71
2018-06-15T12:33:31.838Z,101138.01
2018-06-15T12:36:01.768Z,101143.27
2018-06-15T12:38:31.246Z,101143.78
2018-06-15T12:41:01.358Z,101136.01
2018-06-15T12:43:31.112Z,101135.98
2018-06-15T12:46:01.402Z,101137.23
2018-06-15T12:48:31.338Z,101134.95
2018-06-15T12:51:01.202Z,101141.70
2018-06-15T12:53:30.826Z,101134.56
2018-06-15T12:56:00.643Z,101128.50
2018-06-15T12:58:30.170Z,101130.03
2018-06-15T13:00:59.573Z,101141.44
2018-06-15T13:03:28.997Z,101147.36
2018-06-15T13:05:58.339Z,101145.20
2018-06-15T13:08:27.819Z,101144.86
2018-06-15T13:10:57.176Z,101138.47
2018-06-15T13:13:26.496Z,101140.49
2018-06-15T13:15:55.923Z,101138.61
2018-06-15T13:18:25.211Z,101138.35
2018-06-15T13:20:54.574Z,101142.52
2018-06-15T13:23:24.014Z,101143.98
2018-06-15T13:25:53.481Z,101136.42
2018-06-15T13:28:22.492Z,101132.13
2018-06-15T13:30:51.900Z,101134.45
2018-06-15T13:33:21.710Z,101137.65
2018-06-15T13:35:51.015Z,101134.02
2018-06-15T13:38:21.289Z,101126.94
2018-06-15T13:40:50.589Z,101131.89
2018-06-15T13:43:20.149Z,101125.72
2018-06-15T13:45:49.499Z,101124.11
2018-06-15T13:48:18.951Z,101133.31
2018-06-15T13:50:48.261Z,101121.94
2018-06-15T13:53:17.382Z,101124.70
2018-06-15T13:55:46.907Z,101127.65
2018-06-15T13:58:16.258Z,101124.34
2018-06-15T14:00:45.745Z,101124.30
2018-06-15T14:03:15.368Z,101117.61
2018-06-15T14:05:44.966Z,101122.75
2018-06-15T14:08:14.323Z,101127.78
2018-06-15T14:10:43.749Z,101127.67
2018-06-15T14:13:13.082Z,101128.05
2018-06-15T14:15:42.431Z,101126.66
2018-06-15T14:18:11.776Z,101124.39
2018-06-15T14:20:41.105Z,101120.73
2018-06-15T14:23:10.490Z,101121.77
2018-06-15T14:25:39.871Z,101119.47
2018-06-15T14:28:09.365Z,101113.43
2018-06-15T14:30:38.678Z,101109.27
2018-06-15T14:33:08.238Z,101117.66
2018-06-15T14:35:37.624Z,101107.43
2018-06-15T14:38:07.290Z,101107.48
2018-06-15T14:40:36.788Z,101102.22
2018-06-15T14:43:06.254Z,101106.36
2018-06-15T14:45:35.810Z,101105.52
2018-06-15T14:48:05.477Z,101111.14
2018-06-15T14:50:34.975Z,101111.02
2018-06-15T14:53:04.641Z,101109.01
2018-06-15T14:55:34.044Z,101107.70
2018-06-15T14:58:03.555Z,101104.27
2018-06-15T15:00:32.979Z,101099.23
2018-06-15T15:03:02.573Z,101103.85
2018-06-15T15:05:32.998Z,101094.80
2018-06-15T15:08:05.577Z,101098.98
2018-06-15T15:10:35.044Z,101101.04
2018-06-15T15:13:04.513Z,101098.35
2018-06-15T15:15:33.931Z,101090.45
2018-06-15T15:18:06.596Z,101094.17
2018-06-15T15:20:40.701Z,101099.53
2018-06-15T15:23:12.963Z,101097.33
2018-06-15T15:25:47.320Z,101092.22
2018-06-15T15:28:17.649Z,101092.82
2018-06-15T15:30:52.655Z,101084.86
2018-06-15T15:33:22.250Z,101084.81
2018-06-15T15:35:57.737Z,101090.03
2018-06-15T15:38:28.912Z,101091.19
2018-06-15T15:41:03.456Z,101087.41
2018-06-15T15:43:38.434Z,101081.41
2018-06-15T15:46:10.756Z,101084.42
2018-06-15T15:48:41.946Z,101081.30
2018-06-15T15:51:19.615Z,101076.33
2018-06-15T15:53:50.854Z,101072.33
2018-06-15T15:56:20.310Z,101071.34
2018-06-15T15:58:53.016Z,101073.53
2018-06-15T16:01:22.099Z,101066.04
2018-06-15T16:03:51.537Z,101069.52
2018-06-15T16:06:21.344Z,101067.38
2018-06-15T16:08:51.236Z,101069.61
2018-06-15T16:11:22.349Z,101065.52
2018-06-15T16:13:53.663Z,101057.98
2018-06-15T16:16:22.972Z,101064.65
2018-06-15T16:18:53.717Z,101067.16
2018-06-15T16:21:23.515Z,101066.14
2018-06-15T16:23:54.872Z,101056.75
2018-06-15T16:26:27.652Z,101059.94
2018-06-15T16:28:57.151Z,101055.17
2018-06-15T16:31:26.514Z,101066.73
2018-06-15T16:33:57.435Z,101062.01
2018-06-15T16:36:33.801Z,101064.09
2018-06-15T16:39:12.529Z,101072.09
2018-06-15T16:41:47.900Z,101064.66
2018-06-15T16:44:19.635Z,101068.76
2018-06-15T16:46:53.356Z,101071.63
2018-06-15T16:49:36.514Z,101071.01
2018-06-15T16:52:12.812Z,101075.13
2018-06-15T16:54:44.029Z,101073.19
2018-06-15T16:57:20.564Z,101077.28
2018-06-15T16:59:49.645Z,101072.60
2018-06-15T17:02:23.326Z,101076.58
2018-06-15T17:05:00.650Z,101073.81
2018-06-15T17:07:30.319Z,101072.22
2018-06-15T17:10:00.089Z,101074.53
2018-06-15T17:12:31.761Z,101071.98
2018-06-15T17:15:05.906Z,101069.95
2018-06-15T17:17:36.308Z,101072.36
2018-06-15T17:20:19.579Z,101075.97
2018-06-15T17:22:54.232Z,101078.99
2018-06-15T17:25:23.731Z,101086.48
2018-06-15T17:27:57.038Z,101083.56
2018-06-15T17:30:27.554Z,101082.00
2018-06-15T17:32:57.947Z,101084.55
2018-06-15T17:35:35.907Z,101082.24
2018-06-15T17:38:07.203Z,101087.31
2018-06-15T17:40:36.566Z,101089.23
2018-06-15T17:43:05.965Z,101094.87
2018-06-15T17:45:35.473Z,101094.75
2018-06-15T17:48:05.501Z,101097.86
2018-06-15T17:50:39.218Z,101094.10
2018-06-15T17:53:08.630Z,101091.92
2018-06-15T17:55:38.708Z,101098.28
2018-06-15T18:00:38.166Z,101097.26
2018-06-15T18:03:07.714Z,101093.36
2018-06-15T18:05:41.912Z,101097.55
2018-06-15T18:08:17.788Z,101094.57
2018-06-15T18:10:48.872Z,101095.16
2018-06-15T18:13:18.375Z,101094.37
2018-06-15T18:15:47.717Z,101094.45
2018-06-15T18:18:22.810Z,101101.30
2018-06-15T18:20:52.204Z,101102.49
2018-06-15T18:23:21.595Z,101107.53
2018-06-15T18:25:51.034Z,101100.05
2018-06-15T18:28:20.432Z,101102.04
2018-06-15T18:30:49.893Z,101106.34
2018-06-15T18:33:19.239Z,101103.55
2018-06-15T18:35:48.634Z,101099.64
2018-06-15T18:38:18.031Z,101095.05
2018-06-15T18:40:47.525Z,101096.17
2018-06-15T18:43:17.029Z,101093.61
2018-06-15T18:45:46.480Z,101091.25
2018-06-15T18:48:15.930Z,101092.38
2018-06-15T18:50:45.413Z,101093.70
2018-06-15T18:53:15.046Z,101091.63
2018-06-15T18:55:44.908Z,101095.59
2018-06-15T18:58:13.974Z,101093.61
2018-06-15T19:00:45.353Z,101092.14
2018-06-15T19:03:15.066Z,101093.05
2018-06-15T19:05:44.636Z,101091.66
2018-06-15T19:08:13.985Z,101099.52
2018-06-15T19:10:43.332Z,101094.89
2018-06-15T19:13:12.648Z,101099.66
2018-06-15T19:15:42.457Z,101095.73
2018-06-15T19:18:11.916Z,101098.70
2018-06-15T19:20:41.497Z,101095.16
2018-06-15T19:23:10.945Z,101091.88
2018-06-15T19:25:40.043Z,101096.64
2018-06-15T19:28:09.520Z,101089.67
2018-06-15T19:30:38.865Z,101094.63
2018-06-15T19:33:08.528Z,101096.38
2018-06-15T19:35:38.052Z,101094.11
2018-06-15T19:38:07.444Z,101092.24
2018-06-15T19:40:36.905Z,101090.13
2018-06-15T19:43:06.835Z,101091.84
2018-06-15T19:45:36.611Z,101093.77
2018-06-15T19:48:05.976Z,101088.89
2018-06-15T19:50:35.586Z,101086.16
2018-06-15T19:53:05.286Z,101096.22
2018-06-15T19:55:35.049Z,101094.06
2018-06-15T19:58:04.464Z,101095.51
2018-06-15T20:00:34.180Z,101093.98
2018-06-15T20:03:04.593Z,101095.39
2018-06-15T20:05:34.016Z,101092.48
2018-06-15T20:08:04.818Z,101090.92
2018-06-15T20:10:34.809Z,101091.50
2018-06-15T20:13:04.241Z,101093.18
2018-06-15T20:15:33.685Z,101088.00
2018-06-15T20:18:03.279Z,101094.61
2018-06-15T20:20:35.456Z,101092.82
2018-06-15T20:23:04.958Z,101099.31
2018-06-15T20:25:34.422Z,101096.12
2018-06-15T20:28:04.486Z,101099.52
2018-06-15T20:30:35.164Z,101100.59
2018-06-15T20:33:04.915Z,101097.40
2018-06-15T20:35:47.237Z,101098.25
2018-06-15T20:38:16.545Z,101096.63
2018-06-15T20:43:44.203Z,101096.03
2018-06-15T20:49:22.869Z,101096.70
2018-06-15T20:51:54.617Z,101085.38
2018-06-15T20:54:24.060Z,101087.70
2018-06-15T20:56:53.599Z,101086.39
2018-06-15T20:59:22.983Z,101082.22
2018-06-15T21:01:52.384Z,101082.69
2018-06-15T21:04:21.752Z,101079.93
2018-06-15T21:06:51.020Z,101078.98
2018-06-15T21:09:20.395Z,101079.14
2018-06-15T21:11:49.686Z,101079.91
2018-06-15T21:14:19.022Z,101081.78
2018-06-15T21:16:48.417Z,101079.14
2018-06-15T21:19:18.758Z,101080.63
2018-06-15T21:21:48.120Z,101084.23
2018-06-15T21:24:18.346Z,101086.11
2018-06-15T21:26:47.647Z,101087.49
2018-06-15T21:29:16.943Z,101086.27
2018-06-15T21:31:46.512Z,101083.53
2018-06-15T21:34:15.977Z,101084.69
2018-06-15T21:36:46.164Z,101081.39
2018-06-15T21:39:15.491Z,101078.71
2018-06-15T21:41:44.979Z,101078.51
2018-06-15T21:44:15.192Z,101074.84
2018-06-15T21:46:44.671Z,101073.45
2018-06-15T21:49:14.025Z,101073.16
2018-06-15T21:51:43.492Z,101070.82
2018-06-15T21:54:12.834Z,101074.66
2018-06-15T21:56:42.397Z,101075.31
2018-06-15T21:59:11.784Z,101072.38
2018-06-15T22:01:41.232Z,101068.98
2018-06-15T22:04:10.832Z,101062.86
2018-06-15T22:06:40.521Z,101072.95
2018-06-15T22:09:10.124Z,101068.13
2018-06-15T22:11:39.535Z,101068.70
2018-06-15T22:14:08.946Z,101073.48
2018-06-15T22:16:43.516Z,101069.30
2018-06-15T22:19:29.766Z,101071.66
2018-06-15T22:21:59.196Z,101066.98
2018-06-15T22:24:29.068Z,101070.19
2018-06-15T22:26:58.497Z,101074.36
2018-06-15T22:29:27.822Z,101070.77
2018-06-15T22:31:57.376Z,101075.66
2018-06-15T22:34:26.464Z,101074.03
2018-06-15T22:36:55.917Z,101073.57
2018-06-15T22:39:25.388Z,101080.14
2018-06-15T22:41:55.925Z,101076.14
2018-06-15T22:44:25.442Z,101084.39
2018-06-15T22:46:54.661Z,101086.02
2018-06-15T22:49:24.005Z,101085.08
2018-06-15T22:51:53.495Z,101091.52
2018-06-15T22:54:22.845Z,101092.45
2018-06-15T22:56:52.177Z,101087.47
2018-06-15T22:59:21.592Z,101085.41
2018-06-15T23:01:50.882Z,101090.20
2018-06-15T23:04:20.169Z,101086.08
2018-06-15T23:06:49.568Z,101082.41
2018-06-15T23:09:18.997Z,101087.69
2018-06-15T23:11:48.264Z,101083.08
2018-06-15T23:14:17.631Z,101071.27
2018-06-15T23:17:09.923Z,101081.39
2018-06-15T23:19:39.296Z,101077.84
2018-06-15T23:22:14.475Z,101088.90
2018-06-15T23:24:44.415Z,101081.66
2018-06-15T23:27:13.722Z,101083.48
2018-06-15T23:29:43.123Z,101088.30
2018-06-15T23:32:16.974Z,101088.27
2018-06-15T23:34:51.290Z,101086.55
2018-06-15T23:37:20.840Z,101086.41
2018-06-15T23:39:50.303Z,101087.16
2018-06-15T23:42:19.627Z,101092.73
2018-06-15T23:44:50.656Z,101087.72
2018-06-15T23:47:20.018Z,101093.81
2018-06-15T23:49:49.403Z,101087.11
2018-06-15T23:52:18.861Z,101085.60
2018-06-15T23:54:48.777Z,101090.20
2018-06-15T23:57:18.173Z,101086.80
2018-06-15T23:59:47.508Z,101091.20
